sensor_id;sensor_type;location;lat;lon;timestamp;temperature;humidity
66752;SHT31;53663;42.676;23.238;2024-02-04T00:01:54;6.76;64.51
66752;SHT31;53663;42.676;23.238;2024-02-04T00:04:36;6.80;64.41
66752;SHT31;53663;42.676;23.238;2024-02-04T00:07:20;6.81;64.26
66752;SHT31;53663;42.676;23.238;2024-02-04T00:10:00;6.81;64.34
66752;SHT31;53663;42.676;23.238;2024-02-04T00:12:37;6.78;64.63
66752;SHT31;53663;42.676;23.238;2024-02-04T00:15:28;6.76;64.91
66752;SHT31;53663;42.676;23.238;2024-02-04T00:18:45;6.81;64.72
66752;SHT31;53663;42.676;23.238;2024-02-04T00:21:34;6.74;64.99
66752;SHT31;53663;42.676;23.238;2024-02-04T00:24:16;6.71;65.30
66752;SHT31;53663;42.676;23.238;2024-02-04T00:26:44;6.66;65.51
66752;SHT31;53663;42.676;23.238;2024-02-04T00:29:18;6.66;65.55
66752;SHT31;53663;42.676;23.238;2024-02-04T00:32:06;6.64;65.83
66752;SHT31;53663;42.676;23.238;2024-02-04T00:34:43;6.68;65.79
66752;SHT31;53663;42.676;23.238;2024-02-04T00:37:27;6.78;65.66
66752;SHT31;53663;42.676;23.238;2024-02-04T00:40:17;6.77;65.74
66752;SHT31;53663;42.676;23.238;2024-02-04T00:43:02;6.80;65.79
66752;SHT31;53663;42.676;23.238;2024-02-04T00:45:44;6.80;65.91
66752;SHT31;53663;42.676;23.238;2024-02-04T00:48:36;6.85;66.03
66752;SHT31;53663;42.676;23.238;2024-02-04T00:51:10;6.81;66.23
66752;SHT31;53663;42.676;23.238;2024-02-04T00:53:41;6.81;66.36
66752;SHT31;53663;42.676;23.238;2024-02-04T00:56:16;6.88;66.31
66752;SHT31;53663;42.676;23.238;2024-02-04T00:58:53;6.88;66.40
66752;SHT31;53663;42.676;23.238;2024-02-04T01:02:14;6.88;66.47
66752;SHT31;53663;42.676;23.238;2024-02-04T01:05:37;6.87;66.63
66752;SHT31;53663;42.676;23.238;2024-02-04T01:08:10;6.87;67.09
66752;SHT31;53663;42.676;23.238;2024-02-04T01:10:37;6.97;67.06
66752;SHT31;53663;42.676;23.238;2024-02-04T01:13:19;6.97;67.18
66752;SHT31;53663;42.676;23.238;2024-02-04T01:16:11;6.95;67.17
66752;SHT31;53663;42.676;23.238;2024-02-04T01:18:48;7.01;67.10
66752;SHT31;53663;42.676;23.238;2024-02-04T01:21:51;7.02;67.01
66752;SHT31;53663;42.676;23.238;2024-02-04T01:24:51;7.09;66.80
66752;SHT31;53663;42.676;23.238;2024-02-04T01:28:17;7.09;66.70
66752;SHT31;53663;42.676;23.238;2024-02-04T01:31:17;7.09;66.66
66752;SHT31;53663;42.676;23.238;2024-02-04T01:34:57;7.11;66.78
66752;SHT31;53663;42.676;23.238;2024-02-04T01:37:25;7.14;66.82
66752;SHT31;53663;42.676;23.238;2024-02-04T01:40:14;7.15;66.73
66752;SHT31;53663;42.676;23.238;2024-02-04T01:43:25;7.19;66.82
66752;SHT31;53663;42.676;23.238;2024-02-04T01:46:22;7.25;66.86
66752;SHT31;53663;42.676;23.238;2024-02-04T01:49:47;7.29;66.85
66752;SHT31;53663;42.676;23.238;2024-02-04T01:52:20;7.33;66.95
66752;SHT31;53663;42.676;23.238;2024-02-04T01:54:47;7.30;67.14
66752;SHT31;53663;42.676;23.238;2024-02-04T01:57:15;7.36;66.99
66752;SHT31;53663;42.676;23.238;2024-02-04T01:59:50;7.36;66.96
66752;SHT31;53663;42.676;23.238;2024-02-04T02:02:43;7.40;66.88
66752;SHT31;53663;42.676;23.238;2024-02-04T02:05:11;7.40;66.78
66752;SHT31;53663;42.676;23.238;2024-02-04T02:07:54;7.39;66.88
66752;SHT31;53663;42.676;23.238;2024-02-04T02:10:37;7.43;66.59
66752;SHT31;53663;42.676;23.238;2024-02-04T02:13:38;7.46;66.31
66752;SHT31;53663;42.676;23.238;2024-02-04T02:16:32;7.49;66.28
66752;SHT31;53663;42.676;23.238;2024-02-04T02:22:57;7.47;66.18
66752;SHT31;53663;42.676;23.238;2024-02-04T02:25:49;7.47;66.21
66752;SHT31;53663;42.676;23.238;2024-02-04T02:28:37;7.49;66.10
66752;SHT31;53663;42.676;23.238;2024-02-04T02:31:34;7.45;66.11
66752;SHT31;53663;42.676;23.238;2024-02-04T02:34:34;7.53;65.85
66752;SHT31;53663;42.676;23.238;2024-02-04T02:37:21;7.50;65.91
66752;SHT31;53663;42.676;23.238;2024-02-04T02:43:42;7.43;65.95
66752;SHT31;53663;42.676;23.238;2024-02-04T02:49:32;7.47;65.88
66752;SHT31;53663;42.676;23.238;2024-02-04T02:52:18;7.46;65.93
66752;SHT31;53663;42.676;23.238;2024-02-04T02:54:59;7.50;65.83
66752;SHT31;53663;42.676;23.238;2024-02-04T02:58:04;7.47;65.71
66752;SHT31;53663;42.676;23.238;2024-02-04T03:00:55;7.50;65.81
66752;SHT31;53663;42.676;23.238;2024-02-04T03:03:53;7.47;66.00
66752;SHT31;53663;42.676;23.238;2024-02-04T03:06:28;7.46;66.02
66752;SHT31;53663;42.676;23.238;2024-02-04T03:09:49;7.52;65.81
66752;SHT31;53663;42.676;23.238;2024-02-04T03:12:52;7.53;65.71
66752;SHT31;53663;42.676;23.238;2024-02-04T03:15:51;7.56;65.63
66752;SHT31;53663;42.676;23.238;2024-02-04T03:19:08;7.56;65.66
66752;SHT31;53663;42.676;23.238;2024-02-04T03:22:14;7.56;65.69
66752;SHT31;53663;42.676;23.238;2024-02-04T03:25:32;7.56;65.44
66752;SHT31;53663;42.676;23.238;2024-02-04T03:28:51;7.56;65.47
66752;SHT31;53663;42.676;23.238;2024-02-04T03:31:46;7.56;65.23
66752;SHT31;53663;42.676;23.238;2024-02-04T03:35:06;7.50;65.44
66752;SHT31;53663;42.676;23.238;2024-02-04T03:37:50;7.56;65.22
66752;SHT31;53663;42.676;23.238;2024-02-04T03:40:43;7.45;65.28
66752;SHT31;53663;42.676;23.238;2024-02-04T03:43:27;7.32;65.78
66752;SHT31;53663;42.676;23.238;2024-02-04T03:46:25;7.27;66.18
66752;SHT31;53663;42.676;23.238;2024-02-04T03:49:33;7.18;66.49
66752;SHT31;53663;42.676;23.238;2024-02-04T03:52:25;7.11;66.83
66752;SHT31;53663;42.676;23.238;2024-02-04T03:55:44;7.06;67.28
66752;SHT31;53663;42.676;23.238;2024-02-04T03:59:07;7.12;68.05
66752;SHT31;53663;42.676;23.238;2024-02-04T04:01:52;7.18;67.98
66752;SHT31;53663;42.676;23.238;2024-02-04T04:04:47;7.16;67.61
66752;SHT31;53663;42.676;23.238;2024-02-04T04:07:58;7.25;67.57
66752;SHT31;53663;42.676;23.238;2024-02-04T04:10:35;7.27;67.53
66752;SHT31;53663;42.676;23.238;2024-02-04T04:13:15;7.37;67.18
66752;SHT31;53663;42.676;23.238;2024-02-04T04:16:08;7.46;67.12
66752;SHT31;53663;42.676;23.238;2024-02-04T04:27:07;7.62;68.09
66752;SHT31;53663;42.676;23.238;2024-02-04T04:30:08;7.70;67.99
66752;SHT31;53663;42.676;23.238;2024-02-04T04:37:40;7.83;67.12
66752;SHT31;53663;42.676;23.238;2024-02-04T04:41:33;7.84;67.14
66752;SHT31;53663;42.676;23.238;2024-02-04T04:45:45;7.85;66.76
66752;SHT31;53663;42.676;23.238;2024-02-04T05:05:34;7.78;67.26
66752;SHT31;53663;42.676;23.238;2024-02-04T05:09:05;7.84;67.26
66752;SHT31;53663;42.676;23.238;2024-02-04T05:12:48;7.74;67.29
66752;SHT31;53663;42.676;23.238;2024-02-04T05:16:08;7.70;67.53
66752;SHT31;53663;42.676;23.238;2024-02-04T05:19:33;7.73;67.48
66752;SHT31;53663;42.676;23.238;2024-02-04T05:23:29;7.70;67.38
66752;SHT31;53663;42.676;23.238;2024-02-04T05:27:33;7.80;66.91
66752;SHT31;53663;42.676;23.238;2024-02-04T05:31:15;7.91;66.31
66752;SHT31;53663;42.676;23.238;2024-02-04T05:34:45;7.98;65.74
66752;SHT31;53663;42.676;23.238;2024-02-04T05:38:31;8.01;65.15
66752;SHT31;53663;42.676;23.238;2024-02-04T05:42:00;8.06;64.88
66752;SHT31;53663;42.676;23.238;2024-02-04T05:45:25;8.08;64.66
66752;SHT31;53663;42.676;23.238;2024-02-04T05:48:14;8.16;64.46
66752;SHT31;53663;42.676;23.238;2024-02-04T05:51:25;8.12;64.56
66752;SHT31;53663;42.676;23.238;2024-02-04T05:54:26;8.16;64.45
66752;SHT31;53663;42.676;23.238;2024-02-04T05:57:45;8.24;64.30
66752;SHT31;53663;42.676;23.238;2024-02-04T06:00:43;8.25;64.07
66752;SHT31;53663;42.676;23.238;2024-02-04T06:04:01;8.29;64.18
66752;SHT31;53663;42.676;23.238;2024-02-04T06:07:21;8.36;63.93
66752;SHT31;53663;42.676;23.238;2024-02-04T06:11:00;8.31;63.69
66752;SHT31;53663;42.676;23.238;2024-02-04T06:14:04;8.32;63.96
66752;SHT31;53663;42.676;23.238;2024-02-04T06:17:06;8.29;64.00
66752;SHT31;53663;42.676;23.238;2024-02-04T06:20:31;8.26;63.87
66752;SHT31;53663;42.676;23.238;2024-02-04T06:23:54;8.28;63.97
66752;SHT31;53663;42.676;23.238;2024-02-04T06:27:24;8.28;64.14
66752;SHT31;53663;42.676;23.238;2024-02-04T06:30:26;8.36;63.90
66752;SHT31;53663;42.676;23.238;2024-02-04T06:33:19;8.43;63.60
66752;SHT31;53663;42.676;23.238;2024-02-04T06:35:58;8.48;63.76
66752;SHT31;53663;42.676;23.238;2024-02-04T06:39:16;8.54;63.42
66752;SHT31;53663;42.676;23.238;2024-02-04T06:41:56;8.63;63.40
66752;SHT31;53663;42.676;23.238;2024-02-04T06:44:45;8.70;63.08
66752;SHT31;53663;42.676;23.238;2024-02-04T06:51:24;8.87;62.41
66752;SHT31;53663;42.676;23.238;2024-02-04T06:54:36;8.93;62.31
66752;SHT31;53663;42.676;23.238;2024-02-04T06:57:59;9.03;61.82
66752;SHT31;53663;42.676;23.238;2024-02-04T07:00:49;8.97;62.15
66752;SHT31;53663;42.676;23.238;2024-02-04T07:03:16;8.97;62.15
66752;SHT31;53663;42.676;23.238;2024-02-04T07:05:45;9.01;62.09
66752;SHT31;53663;42.676;23.238;2024-02-04T07:08:35;9.03;62.00
66752;SHT31;53663;42.676;23.238;2024-02-04T07:39:52;10.72;55.90
66752;SHT31;53663;42.676;23.238;2024-02-04T07:51:51;10.42;56.62
66752;SHT31;53663;42.676;23.238;2024-02-04T07:55:59;12.44;51.64
66752;SHT31;53663;42.676;23.238;2024-02-04T08:00:36;15.41;43.83
66752;SHT31;53663;42.676;23.238;2024-02-04T08:13:38;20.96;33.45
66752;SHT31;53663;42.676;23.238;2024-02-04T08:30:56;23.48;27.80
66752;SHT31;53663;42.676;23.238;2024-02-04T08:34:27;20.13;32.54
66752;SHT31;53663;42.676;23.238;2024-02-04T09:08:55;11.23;52.66
66752;SHT31;53663;42.676;23.238;2024-02-04T09:11:21;11.27;52.70
66752;SHT31;53663;42.676;23.238;2024-02-04T09:13:55;11.28;52.78
66752;SHT31;53663;42.676;23.238;2024-02-04T09:16:39;11.33;52.78
66752;SHT31;53663;42.676;23.238;2024-02-04T09:19:15;11.26;52.98
66752;SHT31;53663;42.676;23.238;2024-02-04T09:21:40;11.38;52.70
66752;SHT31;53663;42.676;23.238;2024-02-04T09:24:07;11.27;53.39
66752;SHT31;53663;42.676;23.238;2024-02-04T09:26:57;11.13;53.84
66752;SHT31;53663;42.676;23.238;2024-02-04T09:29:26;11.12;54.13
66752;SHT31;53663;42.676;23.238;2024-02-04T09:32:01;11.09;53.99
66752;SHT31;53663;42.676;23.238;2024-02-04T09:34:27;10.95;54.64
66752;SHT31;53663;42.676;23.238;2024-02-04T09:36:58;10.95;54.63
66752;SHT31;53663;42.676;23.238;2024-02-04T09:40:02;10.99;54.77
66752;SHT31;53663;42.676;23.238;2024-02-04T09:43:07;11.03;54.95
66752;SHT31;53663;42.676;23.238;2024-02-04T09:45:51;11.23;54.46
66752;SHT31;53663;42.676;23.238;2024-02-04T09:48:25;11.17;54.53
66752;SHT31;53663;42.676;23.238;2024-02-04T09:50:59;11.24;54.42
66752;SHT31;53663;42.676;23.238;2024-02-04T09:54:03;11.12;55.12
66752;SHT31;53663;42.676;23.238;2024-02-04T09:56:35;11.17;54.65
66752;SHT31;53663;42.676;23.238;2024-02-04T09:59:02;11.19;55.14
66752;SHT31;53663;42.676;23.238;2024-02-04T10:01:28;11.20;54.59
66752;SHT31;53663;42.676;23.238;2024-02-04T10:03:54;11.13;55.13
66752;SHT31;53663;42.676;23.238;2024-02-04T10:06:20;11.24;55.10
66752;SHT31;53663;42.676;23.238;2024-02-04T10:08:45;11.28;55.35
66752;SHT31;53663;42.676;23.238;2024-02-04T10:11:11;11.36;55.35
66752;SHT31;53663;42.676;23.238;2024-02-04T10:13:48;11.50;55.04
66752;SHT31;53663;42.676;23.238;2024-02-04T10:16:14;11.47;55.66
66752;SHT31;53663;42.676;23.238;2024-02-04T10:18:48;11.31;56.67
66752;SHT31;53663;42.676;23.238;2024-02-04T10:21:36;11.45;56.48
66752;SHT31;53663;42.676;23.238;2024-02-04T10:24:06;11.38;56.59
66752;SHT31;53663;42.676;23.238;2024-02-04T10:26:38;11.28;56.98
66752;SHT31;53663;42.676;23.238;2024-02-04T10:29:09;11.37;56.95
66752;SHT31;53663;42.676;23.238;2024-02-04T10:31:54;11.30;57.18
66752;SHT31;53663;42.676;23.238;2024-02-04T10:34:29;11.31;57.53
66752;SHT31;53663;42.676;23.238;2024-02-04T10:36:58;11.34;57.50
66752;SHT31;53663;42.676;23.238;2024-02-04T10:39:24;11.37;57.27
66752;SHT31;53663;42.676;23.238;2024-02-04T10:41:51;11.50;56.76
66752;SHT31;53663;42.676;23.238;2024-02-04T10:44:23;11.64;56.34
66752;SHT31;53663;42.676;23.238;2024-02-04T10:46:51;11.55;56.59
66752;SHT31;53663;42.676;23.238;2024-02-04T10:49:20;11.47;56.71
66752;SHT31;53663;42.676;23.238;2024-02-04T10:51:47;11.33;56.81
66752;SHT31;53663;42.676;23.238;2024-02-04T10:54:23;11.24;57.15
66752;SHT31;53663;42.676;23.238;2024-02-04T10:57:04;11.12;57.57
66752;SHT31;53663;42.676;23.238;2024-02-04T10:59:34;11.14;57.67
66752;SHT31;53663;42.676;23.238;2024-02-04T11:02:00;11.13;57.56
66752;SHT31;53663;42.676;23.238;2024-02-04T11:04:26;11.06;58.11
66752;SHT31;53663;42.676;23.238;2024-02-04T11:06:53;11.14;57.84
66752;SHT31;53663;42.676;23.238;2024-02-04T11:09:19;11.19;57.74
66752;SHT31;53663;42.676;23.238;2024-02-04T11:11:45;11.19;57.86
66752;SHT31;53663;42.676;23.238;2024-02-04T11:14:13;11.17;57.69
66752;SHT31;53663;42.676;23.238;2024-02-04T11:17:08;11.17;57.80
66752;SHT31;53663;42.676;23.238;2024-02-04T11:23:01;11.31;57.44
66752;SHT31;53663;42.676;23.238;2024-02-04T11:28:05;11.53;56.66
66752;SHT31;53663;42.676;23.238;2024-02-04T11:30:34;11.58;56.23
66752;SHT31;53663;42.676;23.238;2024-02-04T11:33:03;11.51;56.77
66752;SHT31;53663;42.676;23.238;2024-02-04T11:35:29;11.57;56.79
66752;SHT31;53663;42.676;23.238;2024-02-04T11:37:54;11.61;56.48
66752;SHT31;53663;42.676;23.238;2024-02-04T11:40:21;11.64;56.14
66752;SHT31;53663;42.676;23.238;2024-02-04T11:42:48;11.60;56.25
66752;SHT31;53663;42.676;23.238;2024-02-04T11:45:14;11.63;56.07
66752;SHT31;53663;42.676;23.238;2024-02-04T11:47:40;11.81;56.22
66752;SHT31;53663;42.676;23.238;2024-02-04T11:50:06;12.70;54.60
66752;SHT31;53663;42.676;23.238;2024-02-04T11:52:35;15.77;46.45
66752;SHT31;53663;42.676;23.238;2024-02-04T11:55:01;15.02;46.79
66752;SHT31;53663;42.676;23.238;2024-02-04T11:57:27;16.09;44.93
66752;SHT31;53663;42.676;23.238;2024-02-04T11:59:54;17.09;42.01
66752;SHT31;53663;42.676;23.238;2024-02-04T12:02:28;15.88;44.13
66752;SHT31;53663;42.676;23.238;2024-02-04T12:05:00;14.90;46.80
66752;SHT31;53663;42.676;23.238;2024-02-04T12:07:27;14.34;47.61
66752;SHT31;53663;42.676;23.238;2024-02-04T12:09:52;14.04;49.16
66752;SHT31;53663;42.676;23.238;2024-02-04T12:12:19;13.90;49.36
66752;SHT31;53663;42.676;23.238;2024-02-04T12:14:45;13.57;50.08
66752;SHT31;53663;42.676;23.238;2024-02-04T12:17:11;13.34;50.77
66752;SHT31;53663;42.676;23.238;2024-02-04T12:19:37;13.12;51.31
66752;SHT31;53663;42.676;23.238;2024-02-04T12:22:06;13.15;51.29
66752;SHT31;53663;42.676;23.238;2024-02-04T12:24:35;13.45;51.19
66752;SHT31;53663;42.676;23.238;2024-02-04T12:27:03;14.29;49.38
66752;SHT31;53663;42.676;23.238;2024-02-04T12:29:29;15.02;47.61
66752;SHT31;53663;42.676;23.238;2024-02-04T12:32:01;15.48;45.83
66752;SHT31;53663;42.676;23.238;2024-02-04T12:34:28;15.81;44.61
66752;SHT31;53663;42.676;23.238;2024-02-04T12:36:59;15.42;44.76
66752;SHT31;53663;42.676;23.238;2024-02-04T12:39:25;15.28;45.10
66752;SHT31;53663;42.676;23.238;2024-02-04T12:41:51;15.85;44.36
66752;SHT31;53663;42.676;23.238;2024-02-04T12:44:18;16.92;42.23
66752;SHT31;53663;42.676;23.238;2024-02-04T12:46:43;18.08;39.34
66752;SHT31;53663;42.676;23.238;2024-02-04T12:49:09;17.09;41.03
66752;SHT31;53663;42.676;23.238;2024-02-04T12:51:35;17.81;40.27
66752;SHT31;53663;42.676;23.238;2024-02-04T12:56:44;19.72;36.30
66752;SHT31;53663;42.676;23.238;2024-02-04T12:59:09;21.26;34.33
66752;SHT31;53663;42.676;23.238;2024-02-04T13:01:39;21.54;33.32
66752;SHT31;53663;42.676;23.238;2024-02-04T13:04:04;21.65;33.31
66752;SHT31;53663;42.676;23.238;2024-02-04T13:06:31;20.10;34.91
66752;SHT31;53663;42.676;23.238;2024-02-04T13:08:57;19.98;35.62
66752;SHT31;53663;42.676;23.238;2024-02-04T13:11:24;18.21;37.81
66752;SHT31;53663;42.676;23.238;2024-02-04T13:13:50;16.63;41.39
66752;SHT31;53663;42.676;23.238;2024-02-04T13:16:16;15.93;43.29
66752;SHT31;53663;42.676;23.238;2024-02-04T13:18:51;15.50;44.11
66752;SHT31;53663;42.676;23.238;2024-02-04T13:21:16;15.14;44.81
66752;SHT31;53663;42.676;23.238;2024-02-04T13:23:45;14.58;46.10
66752;SHT31;53663;42.676;23.238;2024-02-04T13:26:11;14.34;46.64
66752;SHT31;53663;42.676;23.238;2024-02-04T13:28:37;14.04;47.51
66752;SHT31;53663;42.676;23.238;2024-02-04T13:31:04;13.80;48.05
66752;SHT31;53663;42.676;23.238;2024-02-04T13:33:30;13.35;49.45
66752;SHT31;53663;42.676;23.238;2024-02-04T13:35:55;13.07;50.39
66752;SHT31;53663;42.676;23.238;2024-02-04T13:38:21;13.04;50.62
66752;SHT31;53663;42.676;23.238;2024-02-04T13:40:46;12.94;50.91
66752;SHT31;53663;42.676;23.238;2024-02-04T13:43:12;12.76;51.04
66752;SHT31;53663;42.676;23.238;2024-02-04T13:45:37;12.64;51.49
66752;SHT31;53663;42.676;23.238;2024-02-04T13:48:03;12.51;51.97
66752;SHT31;53663;42.676;23.238;2024-02-04T13:50:29;12.43;52.31
66752;SHT31;53663;42.676;23.238;2024-02-04T13:52:54;12.30;52.72
66752;SHT31;53663;42.676;23.238;2024-02-04T13:55:22;12.33;52.57
66752;SHT31;53663;42.676;23.238;2024-02-04T13:57:47;12.25;52.88
66752;SHT31;53663;42.676;23.238;2024-02-04T14:00:13;12.13;53.37
66752;SHT31;53663;42.676;23.238;2024-02-04T14:02:39;12.02;53.64
66752;SHT31;53663;42.676;23.238;2024-02-04T14:05:04;11.99;53.81
66752;SHT31;53663;42.676;23.238;2024-02-04T14:07:31;11.95;53.94
66752;SHT31;53663;42.676;23.238;2024-02-04T14:09:56;11.98;54.31
66752;SHT31;53663;42.676;23.238;2024-02-04T14:12:24;11.89;54.06
66752;SHT31;53663;42.676;23.238;2024-02-04T14:14:50;11.89;54.22
66752;SHT31;53663;42.676;23.238;2024-02-04T14:17:19;11.86;54.15
66752;SHT31;53663;42.676;23.238;2024-02-04T14:19:45;11.75;54.27
66752;SHT31;53663;42.676;23.238;2024-02-04T14:22:17;11.65;55.00
66752;SHT31;53663;42.676;23.238;2024-02-04T14:24:46;11.63;54.91
66752;SHT31;53663;42.676;23.238;2024-02-04T14:27:12;11.64;54.70
66752;SHT31;53663;42.676;23.238;2024-02-04T14:29:40;11.63;54.76
66752;SHT31;53663;42.676;23.238;2024-02-04T14:32:06;11.61;54.79
66752;SHT31;53663;42.676;23.238;2024-02-04T14:34:35;11.65;54.91
66752;SHT31;53663;42.676;23.238;2024-02-04T14:37:32;11.67;55.19
66752;SHT31;53663;42.676;23.238;2024-02-04T14:39:58;11.65;55.09
66752;SHT31;53663;42.676;23.238;2024-02-04T14:42:33;11.67;55.18
66752;SHT31;53663;42.676;23.238;2024-02-04T14:45:18;11.63;55.38
66752;SHT31;53663;42.676;23.238;2024-02-04T14:47:44;11.53;55.89
66752;SHT31;53663;42.676;23.238;2024-02-04T14:50:10;11.44;56.03
66752;SHT31;53663;42.676;23.238;2024-02-04T14:52:36;11.41;55.98
66752;SHT31;53663;42.676;23.238;2024-02-04T14:55:02;11.37;56.15
66752;SHT31;53663;42.676;23.238;2024-02-04T14:57:34;11.26;56.61
66752;SHT31;53663;42.676;23.238;2024-02-04T15:00:00;11.17;56.98
66752;SHT31;53663;42.676;23.238;2024-02-04T15:02:26;11.13;57.16
66752;SHT31;53663;42.676;23.238;2024-02-04T15:04:51;11.10;57.23
66752;SHT31;53663;42.676;23.238;2024-02-04T15:07:18;11.09;57.92
66752;SHT31;53663;42.676;23.238;2024-02-04T15:09:48;11.10;57.61
66752;SHT31;53663;42.676;23.238;2024-02-04T15:12:16;11.03;57.67
66752;SHT31;53663;42.676;23.238;2024-02-04T15:14:43;10.99;57.89
66752;SHT31;53663;42.676;23.238;2024-02-04T15:17:09;10.95;58.14
66752;SHT31;53663;42.676;23.238;2024-02-04T15:19:35;10.88;58.51
66752;SHT31;53663;42.676;23.238;2024-02-04T15:22:02;10.82;58.66
66752;SHT31;53663;42.676;23.238;2024-02-04T15:24:28;10.85;58.57
66752;SHT31;53663;42.676;23.238;2024-02-04T15:26:56;10.78;58.80
66752;SHT31;53663;42.676;23.238;2024-02-04T15:29:33;10.85;58.67
66752;SHT31;53663;42.676;23.238;2024-02-04T15:32:02;10.73;58.72
66752;SHT31;53663;42.676;23.238;2024-02-04T15:34:28;10.65;59.08
66752;SHT31;53663;42.676;23.238;2024-02-04T15:36:58;10.51;59.39
66752;SHT31;53663;42.676;23.238;2024-02-04T15:39:24;10.44;59.35
66752;SHT31;53663;42.676;23.238;2024-02-04T15:41:50;10.37;59.71
66752;SHT31;53663;42.676;23.238;2024-02-04T15:44:15;10.30;59.76
66752;SHT31;53663;42.676;23.238;2024-02-04T15:46:42;10.21;59.97
66752;SHT31;53663;42.676;23.238;2024-02-04T15:49:13;10.17;60.25
66752;SHT31;53663;42.676;23.238;2024-02-04T15:51:39;10.14;60.51
66752;SHT31;53663;42.676;23.238;2024-02-04T15:54:05;10.20;60.43
66752;SHT31;53663;42.676;23.238;2024-02-04T15:56:33;10.14;60.30
66752;SHT31;53663;42.676;23.238;2024-02-04T15:59:10;10.08;60.35
66752;SHT31;53663;42.676;23.238;2024-02-04T16:01:38;10.01;60.99
66752;SHT31;53663;42.676;23.238;2024-02-04T16:04:08;9.94;61.05
66752;SHT31;53663;42.676;23.238;2024-02-04T16:06:34;9.87;60.81
66752;SHT31;53663;42.676;23.238;2024-02-04T16:09:01;9.76;61.23
66752;SHT31;53663;42.676;23.238;2024-02-04T16:11:28;9.69;61.30
66752;SHT31;53663;42.676;23.238;2024-02-04T16:14:02;9.42;62.09
66752;SHT31;53663;42.676;23.238;2024-02-04T16:16:33;9.35;62.29
66752;SHT31;53663;42.676;23.238;2024-02-04T16:19:00;9.31;62.14
66752;SHT31;53663;42.676;23.238;2024-02-04T16:21:32;9.17;62.28
66752;SHT31;53663;42.676;23.238;2024-02-04T16:24:01;9.01;62.98
66752;SHT31;53663;42.676;23.238;2024-02-04T16:26:26;9.00;62.77
66752;SHT31;53663;42.676;23.238;2024-02-04T16:28:52;8.87;62.99
66752;SHT31;53663;42.676;23.238;2024-02-04T16:31:22;8.83;63.47
66752;SHT31;53663;42.676;23.238;2024-02-04T16:33:55;8.69;64.18
66752;SHT31;53663;42.676;23.238;2024-02-04T16:36:27;8.54;64.83
66752;SHT31;53663;42.676;23.238;2024-02-04T16:38:56;8.57;64.43
66752;SHT31;53663;42.676;23.238;2024-02-04T16:41:22;8.57;64.55
66752;SHT31;53663;42.676;23.238;2024-02-04T16:43:47;8.57;64.66
66752;SHT31;53663;42.676;23.238;2024-02-04T16:46:15;8.52;64.90
66752;SHT31;53663;42.676;23.238;2024-02-04T16:48:53;8.57;64.69
66752;SHT31;53663;42.676;23.238;2024-02-04T16:51:19;8.59;64.66
66752;SHT31;53663;42.676;23.238;2024-02-04T16:53:54;8.56;64.88
66752;SHT31;53663;42.676;23.238;2024-02-04T16:56:31;8.56;65.01
66752;SHT31;53663;42.676;23.238;2024-02-04T16:58:56;8.57;64.87
66752;SHT31;53663;42.676;23.238;2024-02-04T17:01:25;8.50;65.03
66752;SHT31;53663;42.676;23.238;2024-02-04T17:03:52;8.45;65.50
66752;SHT31;53663;42.676;23.238;2024-02-04T17:06:20;8.52;65.42
66752;SHT31;53663;42.676;23.238;2024-02-04T17:08:46;8.45;65.69
66752;SHT31;53663;42.676;23.238;2024-02-04T17:11:12;8.33;66.37
66752;SHT31;53663;42.676;23.238;2024-02-04T17:13:38;8.33;66.17
66752;SHT31;53663;42.676;23.238;2024-02-04T17:19:09;8.41;65.72
66752;SHT31;53663;42.676;23.238;2024-02-04T17:21:39;8.33;65.60
66752;SHT31;53663;42.676;23.238;2024-02-04T17:24:12;8.28;65.32
66752;SHT31;53663;42.676;23.238;2024-02-04T17:26:40;8.18;65.61
66752;SHT31;53663;42.676;23.238;2024-02-04T17:29:05;8.28;65.60
66752;SHT31;53663;42.676;23.238;2024-02-04T17:31:31;8.32;65.54
66752;SHT31;53663;42.676;23.238;2024-02-04T17:33:59;8.39;64.88
66752;SHT31;53663;42.676;23.238;2024-02-04T17:36:25;8.42;64.73
66752;SHT31;53663;42.676;23.238;2024-02-04T17:38:50;8.43;64.73
66752;SHT31;53663;42.676;23.238;2024-02-04T17:41:16;8.49;64.58
66752;SHT31;53663;42.676;23.238;2024-02-04T17:43:43;8.53;64.21
66752;SHT31;53663;42.676;23.238;2024-02-04T17:46:09;8.60;64.02
66752;SHT31;53663;42.676;23.238;2024-02-04T17:48:35;8.66;63.78
66752;SHT31;53663;42.676;23.238;2024-02-04T17:51:01;8.56;63.89
66752;SHT31;53663;42.676;23.238;2024-02-04T17:53:26;8.56;63.69
66752;SHT31;53663;42.676;23.238;2024-02-04T17:55:52;8.56;63.42
66752;SHT31;53663;42.676;23.238;2024-02-04T17:58:19;8.50;63.23
66752;SHT31;53663;42.676;23.238;2024-02-04T18:00:45;8.53;63.12
66752;SHT31;53663;42.676;23.238;2024-02-04T18:03:10;8.53;63.10
66752;SHT31;53663;42.676;23.238;2024-02-04T19:09:00;7.98;66.02
66752;SHT31;53663;42.676;23.238;2024-02-04T19:11:28;8.02;65.67
66752;SHT31;53663;42.676;23.238;2024-02-04T19:13:54;8.06;65.33
66752;SHT31;53663;42.676;23.238;2024-02-04T19:16:22;8.06;65.10
66752;SHT31;53663;42.676;23.238;2024-02-04T19:18:49;8.09;65.08
66752;SHT31;53663;42.676;23.238;2024-02-04T19:21:15;8.09;64.91
66752;SHT31;53663;42.676;23.238;2024-02-04T19:23:42;8.12;64.68
66752;SHT31;53663;42.676;23.238;2024-02-04T19:26:11;8.05;64.82
66752;SHT31;53663;42.676;23.238;2024-02-04T19:28:38;8.09;64.57
66752;SHT31;53663;42.676;23.238;2024-02-04T19:31:04;8.06;64.54
66752;SHT31;53663;42.676;23.238;2024-02-04T19:33:30;8.08;64.19
66752;SHT31;53663;42.676;23.238;2024-02-04T19:35:55;8.05;64.17
66752;SHT31;53663;42.676;23.238;2024-02-04T19:38:22;8.02;63.92
66752;SHT31;53663;42.676;23.238;2024-02-04T19:40:53;8.01;63.69
66752;SHT31;53663;42.676;23.238;2024-02-04T19:43:19;8.02;63.42
66752;SHT31;53663;42.676;23.238;2024-02-04T19:45:44;8.05;63.16
66752;SHT31;53663;42.676;23.238;2024-02-04T19:48:10;8.05;62.86
66752;SHT31;53663;42.676;23.238;2024-02-04T19:50:37;8.11;62.78
66752;SHT31;53663;42.676;23.238;2024-02-04T19:53:02;8.05;62.84
66752;SHT31;53663;42.676;23.238;2024-02-04T19:55:30;8.12;62.74
66752;SHT31;53663;42.676;23.238;2024-02-04T19:57:55;8.12;62.76
66752;SHT31;53663;42.676;23.238;2024-02-04T20:00:21;8.16;62.87
66752;SHT31;53663;42.676;23.238;2024-02-04T20:02:47;8.15;62.96
66752;SHT31;53663;42.676;23.238;2024-02-04T20:05:13;8.11;63.14
66752;SHT31;53663;42.676;23.238;2024-02-04T20:07:40;8.08;63.23
66752;SHT31;53663;42.676;23.238;2024-02-04T20:10:08;8.01;63.45
66752;SHT31;53663;42.676;23.238;2024-02-04T20:12:34;7.97;63.69
66752;SHT31;53663;42.676;23.238;2024-02-04T20:15:00;7.90;63.87
66752;SHT31;53663;42.676;23.238;2024-02-04T20:17:25;7.94;63.73
66752;SHT31;53663;42.676;23.238;2024-02-04T20:19:53;7.95;63.54